Terminal Aerodrome Forecast
Issued by NWS La Crosse, WI

Home | Current Version | Previous Version | Text Only | Print | Product List | Glossary On
Versions: 1 2 3 4 5 6 7 8 9 10 11 12 13 14 15 16 17 18 19 20 21 22 23 24
000
FTUS43 KARX 300520
TAFLSE
TAF
KLSE 300520Z 3006/3106 VRB04KT P6SM SCT070
     FM300700 VRB04KT P6SM SKC
      TEMPO 3010/3012 5SM BR
     FM301700 23006KT P6SM SCT120
     FM310200 17004KT P6SM SCT060 BKN120=

USA.gov is the U.S. government's official web portal to all federal, state and local government web resources and services.